createdAt,value
2023-01-20T00:19:41.726Z,72.84
2023-01-20T00:41:24.780Z,73.17
2023-01-20T01:03:07.653Z,73.67
2023-01-20T01:24:50.554Z,73.36
2023-01-20T01:51:29.637Z,73.07
2023-01-20T02:13:12.691Z,73.83
2023-01-20T02:35:01.278Z,74.15
2023-01-20T02:56:45.045Z,74.16
2023-01-20T03:18:30.602Z,75.07
2023-01-20T03:40:16.069Z,75.08
2023-01-20T04:02:02.576Z,75.39
2023-01-20T04:23:51.490Z,75.74
2023-01-20T04:45:34.667Z,75.08
2023-01-20T05:07:17.634Z,75.02
2023-01-20T05:29:02.006Z,75.99
2023-01-20T05:50:45.050Z,76.84
2023-01-20T06:12:28.076Z,76.84
2023-01-20T06:34:12.198Z,76.16
2023-01-20T06:55:56.390Z,76.53
2023-01-20T07:17:39.226Z,76.31
2023-01-20T07:39:22.090Z,77.05
2023-01-20T08:01:09.797Z,77.62
2023-01-20T08:22:52.892Z,76.58
2023-01-20T08:44:35.855Z,75.34
2023-01-20T09:06:21.179Z,74.95
2023-01-20T09:28:06.613Z,74.36
2023-01-20T09:50:46.673Z,72.84
2023-01-20T10:12:33.634Z,68.74
2023-01-20T10:34:19.687Z,64.20
2023-01-20T10:56:13.585Z,60.74
2023-01-20T11:18:22.079Z,60.41
2023-01-20T11:51:22.358Z,62.05
2023-01-20T12:13:17.439Z,63.52
2023-01-20T12:35:03.259Z,64.95
2023-01-20T12:56:59.330Z,66.10
2023-01-20T13:19:03.682Z,64.29
2023-01-20T13:40:58.830Z,65.36
2023-01-20T14:02:45.534Z,65.93
2023-01-20T14:24:33.727Z,67.99
2023-01-20T14:46:20.248Z,69.66
2023-01-20T15:08:25.170Z,70.55
2023-01-20T15:30:21.326Z,71.86
2023-01-20T15:52:10.531Z,73.46
2023-01-20T16:13:57.968Z,74.72
2023-01-20T16:35:44.056Z,76.50
2023-01-20T16:57:29.742Z,77.29
2023-01-20T17:19:17.707Z,77.68
2023-01-20T17:51:14.320Z,78.09
2023-01-20T18:12:59.981Z,78.79
2023-01-20T18:34:45.658Z,79.33
2023-01-20T18:56:33.077Z,79.91
2023-01-20T19:18:18.890Z,79.45
2023-01-20T19:40:03.056Z,78.41
2023-01-20T20:01:48.694Z,78.55
2023-01-20T20:23:34.399Z,78.90
2023-01-20T20:45:20.473Z,80.59
2023-01-20T21:07:06.096Z,81.62
2023-01-20T21:28:51.959Z,82.78
2023-01-20T21:50:55.022Z,82.56
2023-01-20T22:20:09.286Z,81.42
2023-01-20T22:41:55.283Z,81.65
2023-01-20T23:03:41.311Z,83.39
2023-01-20T23:25:27.197Z,84.30
2023-01-20T23:47:12.862Z,84.59
